createdAt,value
2023-08-15T00:02:58.455Z,18.57
2023-08-15T00:08:00.030Z,18.46
2023-08-15T00:13:01.487Z,18.44
2023-08-15T00:18:03.123Z,18.38
2023-08-15T00:23:04.884Z,18.38
2023-08-15T00:28:06.677Z,18.37
2023-08-15T00:33:08.199Z,18.30
2023-08-15T00:38:09.715Z,18.32
2023-08-15T00:43:11.232Z,18.24
2023-08-15T00:48:13.053Z,18.18
2023-08-15T00:53:17.748Z,18.16
2023-08-15T00:58:19.268Z,18.07
2023-08-15T01:03:21.136Z,18.02
2023-08-15T01:08:22.661Z,18.09
2023-08-15T01:13:40.368Z,18.15
2023-08-15T01:19:06.901Z,18.13
2023-08-15T01:24:08.830Z,18.14
2023-08-15T01:29:10.264Z,18.18
2023-08-15T01:34:13.477Z,18.10
2023-08-15T01:39:23.111Z,18.04
2023-08-15T01:44:26.055Z,18.00
2023-08-15T01:49:27.509Z,17.87
2023-08-15T01:54:29.429Z,17.69
2023-08-15T01:59:32.234Z,17.45
2023-08-15T02:04:34.291Z,17.43
2023-08-15T02:09:35.792Z,17.48
2023-08-15T02:14:37.303Z,17.45
2023-08-15T02:19:38.773Z,17.39
2023-08-15T02:24:40.226Z,17.40
2023-08-15T02:29:41.723Z,17.49
2023-08-15T02:34:43.169Z,17.51
2023-08-15T02:39:44.635Z,17.57
2023-08-15T02:44:46.913Z,17.54
2023-08-15T02:49:48.379Z,17.43
2023-08-15T02:54:49.830Z,17.34
2023-08-15T02:59:51.320Z,17.33
2023-08-15T03:04:52.791Z,17.32
2023-08-15T03:09:54.338Z,17.32
2023-08-15T03:14:57.187Z,17.46
2023-08-15T03:19:59.677Z,17.47
2023-08-15T03:25:01.257Z,17.49
2023-08-15T03:30:02.908Z,17.49
2023-08-15T03:35:05.371Z,17.49
2023-08-15T03:40:07.684Z,17.50
2023-08-15T03:45:09.475Z,17.45
2023-08-15T03:50:10.945Z,17.47
2023-08-15T03:55:12.414Z,17.58
2023-08-15T04:00:14.237Z,17.61
2023-08-15T04:05:15.888Z,17.55
2023-08-15T04:10:17.399Z,17.49
2023-08-15T04:15:19.341Z,17.50
2023-08-15T04:20:20.797Z,17.59
2023-08-15T04:25:22.273Z,17.50
2023-08-15T04:30:23.789Z,17.49
2023-08-15T04:35:26.090Z,17.41
2023-08-15T04:40:36.928Z,17.44
2023-08-15T04:45:38.550Z,17.56
2023-08-15T04:50:40.629Z,17.74
2023-08-15T04:55:42.199Z,17.88
2023-08-15T05:00:43.687Z,18.01
2023-08-15T05:05:45.231Z,18.20
2023-08-15T05:10:46.818Z,18.51
2023-08-15T05:15:48.348Z,18.85
2023-08-15T05:20:49.966Z,19.02
2023-08-15T05:25:51.668Z,19.29
2023-08-15T05:30:53.344Z,19.36
2023-08-15T05:35:55.409Z,19.32
2023-08-15T05:40:57.534Z,19.36
2023-08-15T05:45:58.982Z,19.39
2023-08-15T05:51:00.490Z,19.38
2023-08-15T05:56:01.968Z,19.42
2023-08-15T06:01:03.479Z,19.51
2023-08-15T06:06:05.040Z,19.66
2023-08-15T06:11:06.963Z,19.83
2023-08-15T06:16:08.416Z,20.10
2023-08-15T06:21:10.111Z,20.82
2023-08-15T06:26:11.581Z,21.11
2023-08-15T06:31:13.067Z,21.17
2023-08-15T06:36:14.545Z,21.25
2023-08-15T06:41:16.124Z,21.48
2023-08-15T06:46:17.658Z,21.74
2023-08-15T06:51:19.202Z,21.89
2023-08-15T06:56:21.771Z,21.95
2023-08-15T07:01:23.293Z,21.71
2023-08-15T07:06:24.915Z,21.55
2023-08-15T07:11:26.449Z,21.59
2023-08-15T07:16:27.945Z,21.73
2023-08-15T07:21:29.420Z,21.75
2023-08-15T07:26:30.868Z,21.47
2023-08-15T07:31:32.476Z,21.23
2023-08-15T07:36:33.956Z,21.06
2023-08-15T07:41:35.440Z,21.06
2023-08-15T07:46:36.891Z,21.15
2023-08-15T07:51:38.355Z,21.14
2023-08-15T07:56:39.846Z,21.04
2023-08-15T08:01:41.386Z,20.92
2023-08-15T08:06:42.884Z,20.86
2023-08-15T08:11:44.374Z,20.80
2023-08-15T08:16:45.841Z,20.73
2023-08-15T08:21:47.319Z,20.68
2023-08-15T08:26:48.782Z,20.71
2023-08-15T08:31:50.483Z,20.74
2023-08-15T08:36:51.942Z,20.72
2023-08-15T08:41:53.469Z,20.79
2023-08-15T08:46:55.564Z,20.96
2023-08-15T08:51:57.383Z,21.04
2023-08-15T08:57:01.400Z,21.39
2023-08-15T09:02:03.529Z,22.49
2023-08-15T09:07:05.001Z,24.13
2023-08-15T09:12:06.619Z,24.75
2023-08-15T09:17:11.072Z,24.26
2023-08-15T09:22:22.040Z,24.70
2023-08-15T09:27:24.287Z,24.34
2023-08-15T09:32:25.829Z,25.02
2023-08-15T09:37:27.533Z,24.50
2023-08-15T09:42:29.043Z,24.46
2023-08-15T09:47:30.569Z,25.11
2023-08-15T09:52:32.102Z,25.11
2023-08-15T09:57:33.602Z,24.51
2023-08-15T10:02:36.088Z,24.85
2023-08-15T10:07:38.634Z,25.53
2023-08-15T10:12:42.177Z,24.71
2023-08-15T10:17:44.007Z,24.72
2023-08-15T10:22:45.508Z,25.42
2023-08-15T10:27:49.482Z,25.43
2023-08-15T10:32:51.089Z,25.19
2023-08-15T10:37:52.582Z,25.74
2023-08-15T10:43:03.288Z,25.23
2023-08-15T10:48:06.393Z,24.84
2023-08-15T10:53:07.958Z,25.05
2023-08-15T10:58:11.429Z,25.39
2023-08-15T11:03:13.015Z,24.98
2023-08-15T11:08:19.930Z,24.79
2023-08-15T11:13:21.358Z,25.15
2023-08-15T11:18:22.920Z,25.28
2023-08-15T11:23:24.498Z,24.62
2023-08-15T11:28:27.340Z,25.07
2023-08-15T11:33:32.067Z,26.36
2023-08-15T11:38:35.720Z,25.96
2023-08-15T11:43:37.259Z,25.90
2023-08-15T11:48:38.769Z,25.97
2023-08-15T11:53:49.836Z,26.85
2023-08-15T11:58:51.388Z,27.10
2023-08-15T12:03:53.658Z,27.34
2023-08-15T12:08:55.195Z,27.50
2023-08-15T12:13:56.696Z,27.42
2023-08-15T12:18:58.617Z,27.52
2023-08-15T12:24:00.087Z,27.00
2023-08-15T12:29:01.581Z,26.87
2023-08-15T12:34:03.195Z,26.80
2023-08-15T12:39:04.911Z,26.77
2023-08-15T12:44:06.405Z,27.01
2023-08-15T12:49:07.843Z,26.83
2023-08-15T12:54:09.330Z,25.84
2023-08-15T12:59:10.967Z,25.95
2023-08-15T13:04:12.470Z,25.66
2023-08-15T13:09:13.939Z,25.49
2023-08-15T13:14:15.434Z,25.55
2023-08-15T13:19:16.918Z,25.31
2023-08-15T13:24:18.511Z,25.57
2023-08-15T13:29:20.242Z,25.80
2023-08-15T13:34:21.679Z,25.43
2023-08-15T13:39:23.331Z,25.35
2023-08-15T13:44:24.828Z,25.37
2023-08-15T13:49:26.262Z,25.44
2023-08-15T13:54:27.777Z,25.46
2023-08-15T13:59:29.277Z,25.63
2023-08-15T14:04:30.717Z,25.82
2023-08-15T14:09:32.194Z,25.83
2023-08-15T14:14:33.725Z,25.97
2023-08-15T14:19:35.194Z,26.21
2023-08-15T14:24:36.664Z,26.65
2023-08-15T14:29:38.106Z,26.58
2023-08-15T14:34:39.560Z,26.04
2023-08-15T14:39:41.276Z,25.91
2023-08-15T14:44:42.785Z,26.11
2023-08-15T14:49:44.300Z,25.77
2023-08-15T14:54:45.749Z,25.74
2023-08-15T14:59:47.545Z,25.65
2023-08-15T15:04:49.046Z,25.54
2023-08-15T15:09:50.590Z,25.58
2023-08-15T15:14:52.069Z,25.66
2023-08-15T15:19:53.550Z,25.90
2023-08-15T15:24:55.050Z,25.94
2023-08-15T15:29:56.533Z,25.53
2023-08-15T15:34:57.976Z,25.79
2023-08-15T15:40:00.886Z,25.99
2023-08-15T15:45:02.469Z,25.86
2023-08-15T15:50:04.118Z,25.82
2023-08-15T15:55:07.495Z,25.66
2023-08-15T16:00:10.265Z,25.41
2023-08-15T16:05:12.595Z,25.59
2023-08-15T16:10:14.201Z,25.12
2023-08-15T16:15:15.741Z,24.69
2023-08-15T16:20:17.231Z,24.09
2023-08-15T16:25:18.776Z,24.04
2023-08-15T16:30:20.373Z,23.89
2023-08-15T16:35:21.966Z,23.89
2023-08-15T16:40:23.668Z,23.80
2023-08-15T16:45:25.121Z,23.64
2023-08-15T16:50:26.637Z,23.60
2023-08-15T16:55:28.780Z,23.53
2023-08-15T17:00:30.768Z,23.44
2023-08-15T17:05:32.264Z,23.35
2023-08-15T17:10:33.862Z,23.26
2023-08-15T17:15:35.431Z,23.28
2023-08-15T17:20:37.435Z,23.27
2023-08-15T17:25:38.956Z,23.04
2023-08-15T17:30:40.474Z,23.18
2023-08-15T17:35:43.705Z,23.08
2023-08-15T17:40:45.317Z,23.02
2023-08-15T17:45:46.886Z,22.80
2023-08-15T17:50:48.665Z,22.73
2023-08-15T17:55:50.171Z,22.54
2023-08-15T18:00:51.733Z,22.41
2023-08-15T18:05:53.207Z,22.34
2023-08-15T18:10:54.736Z,22.36
2023-08-15T18:15:56.305Z,21.97
2023-08-15T18:20:57.873Z,21.86
2023-08-15T18:25:59.668Z,21.75
2023-08-15T18:31:01.191Z,21.61
2023-08-15T18:36:02.769Z,21.48
2023-08-15T18:41:04.377Z,21.30
2023-08-15T18:46:05.893Z,21.32
2023-08-15T18:51:07.601Z,21.28
2023-08-15T18:56:09.075Z,21.16
2023-08-15T19:01:10.595Z,21.16
2023-08-15T19:06:12.168Z,21.11
2023-08-15T19:11:13.656Z,21.02
2023-08-15T19:16:15.144Z,20.91
2023-08-15T19:21:16.667Z,20.80
2023-08-15T19:26:18.164Z,20.78
2023-08-15T19:31:19.650Z,20.56
2023-08-15T19:36:21.185Z,20.55
2023-08-15T19:41:22.711Z,20.58
2023-08-15T19:46:24.198Z,20.56
2023-08-15T19:51:25.804Z,20.49
2023-08-15T19:56:27.323Z,20.33
2023-08-15T20:01:28.883Z,20.25
2023-08-15T20:06:30.392Z,20.07
2023-08-15T20:11:31.859Z,19.97
2023-08-15T20:16:33.462Z,19.92
2023-08-15T20:21:34.976Z,19.95
2023-08-15T20:26:36.455Z,19.97
2023-08-15T20:31:38.013Z,19.97
2023-08-15T20:36:39.513Z,19.90
2023-08-15T20:41:41.022Z,19.85
2023-08-15T20:46:42.550Z,19.72
2023-08-15T20:51:44.169Z,19.71
2023-08-15T20:56:45.665Z,19.54
2023-08-15T21:01:47.148Z,19.40
2023-08-15T21:06:48.857Z,19.16
2023-08-15T21:11:50.340Z,19.06
2023-08-15T21:16:52.296Z,18.94
2023-08-15T21:21:53.887Z,18.72
2023-08-15T21:26:55.915Z,18.75
2023-08-15T21:31:57.419Z,18.59
2023-08-15T21:36:58.922Z,18.40
2023-08-15T21:42:00.474Z,18.23
2023-08-15T21:47:01.933Z,18.14
2023-08-15T21:52:03.556Z,18.00
2023-08-15T21:57:05.710Z,17.93
2023-08-15T22:02:07.188Z,17.92
2023-08-15T22:07:08.799Z,17.85
2023-08-15T22:12:12.437Z,17.76
2023-08-15T22:17:13.966Z,17.65
2023-08-15T22:22:15.522Z,17.57
2023-08-15T22:27:17.090Z,17.51
2023-08-15T22:32:18.578Z,17.41
2023-08-15T22:37:20.303Z,17.35
2023-08-15T22:42:21.970Z,17.23
2023-08-15T22:47:23.739Z,17.18
2023-08-15T22:52:25.558Z,17.20
2023-08-15T22:57:27.012Z,17.16
2023-08-15T23:02:28.471Z,17.14
2023-08-15T23:07:30.025Z,17.05
2023-08-15T23:12:31.619Z,16.82
2023-08-15T23:17:33.139Z,16.74
2023-08-15T23:22:34.710Z,16.72
2023-08-15T23:27:36.346Z,16.70
2023-08-15T23:32:37.869Z,16.57
2023-08-15T23:37:39.353Z,16.43
2023-08-15T23:42:41.620Z,16.47
2023-08-15T23:47:43.220Z,16.39
2023-08-15T23:52:44.820Z,16.28
2023-08-15T23:57:46.317Z,16.12
